<?xml version="1.0" encoding="utf-8"?>
<gpx xmlns:xsi="http://www.w3.org/2001/XMLSchema-instance" xmlns:xsd="http://www.w3.org/2001/XMLSchema" version="1.1" creator="Shapelink.com" xmlns="http://www.topografix.com/GPX/1/1" xmlns:gpxtpx="http://www.garmin.com/xmlschemas/TrackPointExtension/v1">
  <metadata>
    <name>Løping 5.12 km, 2012-09-13</name>
    <desc></desc>
    <author><name>Mikael Blom</name></author> 
    <time>2012-09-13T19:26:50Z</time>
  </metadata>
  <trk>
    <name>Løping 5.12 km, 2012-09-13</name>
    <trkseg>
      <trkpt lat="59.9954506" lon="17.7360023">
        <ele>67.9103</ele>
        <time>2012-09-13T19:26:50Z</time>
      </trkpt>
      <trkpt lat="59.9955609" lon="17.7360655">
        <ele>71.2749</ele>
        <time>2012-09-13T19:26:54Z</time>
      </trkpt>
      <trkpt lat="59.9957305" lon="17.7360245">
        <ele>73.6782</ele>
        <time>2012-09-13T19:27:01Z</time>
      </trkpt>
      <trkpt lat="59.995851" lon="17.7360251">
        <ele>72.7169</ele>
        <time>2012-09-13T19:27:06Z</time>
      </trkpt>
      <trkpt lat="59.995982" lon="17.7360546">
        <ele>76.0814</ele>
        <time>2012-09-13T19:27:11Z</time>
      </trkpt>
      <trkpt lat="59.9961038" lon="17.7360567">
        <ele>71.7555</ele>
        <time>2012-09-13T19:27:17Z</time>
      </trkpt>
      <trkpt lat="59.9962003" lon="17.7360853">
        <ele>65.9877</ele>
        <time>2012-09-13T19:27:22Z</time>
      </trkpt>
      <trkpt lat="59.9962971" lon="17.7361266">
        <ele>59.7391</ele>
        <time>2012-09-13T19:27:27Z</time>
      </trkpt>
      <trkpt lat="59.9964106" lon="17.7361806">
        <ele>59.2584</ele>
        <time>2012-09-13T19:27:32Z</time>
      </trkpt>
      <trkpt lat="59.9964635" lon="17.7362147">
        <ele>56.8551</ele>
        <time>2012-09-13T19:27:35Z</time>
      </trkpt>
      <trkpt lat="59.9965829" lon="17.7362497">
        <ele>56.8551</ele>
        <time>2012-09-13T19:27:41Z</time>
      </trkpt>
      <trkpt lat="59.9966153" lon="17.7362849">
        <ele>56.8551</ele>
        <time>2012-09-13T19:27:43Z</time>
      </trkpt>
      <trkpt lat="59.9966777" lon="17.7363114">
        <ele>58.2971</ele>
        <time>2012-09-13T19:27:46Z</time>
      </trkpt>
      <trkpt lat="59.9968068" lon="17.7363877">
        <ele>62.1423</ele>
        <time>2012-09-13T19:27:51Z</time>
      </trkpt>
      <trkpt lat="59.9969699" lon="17.736452">
        <ele>62.1423</ele>
        <time>2012-09-13T19:27:58Z</time>
      </trkpt>
      <trkpt lat="59.9970797" lon="17.7364607">
        <ele>61.181</ele>
        <time>2012-09-13T19:28:03Z</time>
      </trkpt>
      <trkpt lat="59.9971926" lon="17.7364812">
        <ele>58.7777</ele>
        <time>2012-09-13T19:28:08Z</time>
      </trkpt>
      <trkpt lat="59.9973379" lon="17.7365136">
        <ele>60.2197</ele>
        <time>2012-09-13T19:28:14Z</time>
      </trkpt>
      <trkpt lat="59.9974917" lon="17.7365286">
        <ele>65.0264</ele>
        <time>2012-09-13T19:28:20Z</time>
      </trkpt>
      <trkpt lat="59.9976355" lon="17.7365555">
        <ele>66.4683</ele>
        <time>2012-09-13T19:28:26Z</time>
      </trkpt>
      <trkpt lat="59.9977745" lon="17.7365549">
        <ele>64.0651</ele>
        <time>2012-09-13T19:28:32Z</time>
      </trkpt>
      <trkpt lat="59.9979083" lon="17.7365427">
        <ele>62.1423</ele>
        <time>2012-09-13T19:28:38Z</time>
      </trkpt>
      <trkpt lat="59.9980315" lon="17.736554">
        <ele>60.2197</ele>
        <time>2012-09-13T19:28:43Z</time>
      </trkpt>
      <trkpt lat="59.9981803" lon="17.7365582">
        <ele>63.5844</ele>
        <time>2012-09-13T19:28:49Z</time>
      </trkpt>
      <trkpt lat="59.9982926" lon="17.73658">
        <ele>61.6617</ele>
        <time>2012-09-13T19:28:54Z</time>
      </trkpt>
      <trkpt lat="59.9983941" lon="17.7365939">
        <ele>58.2971</ele>
        <time>2012-09-13T19:28:59Z</time>
      </trkpt>
      <trkpt lat="59.9985422" lon="17.7366155">
        <ele>57.8165</ele>
        <time>2012-09-13T19:29:05Z</time>
      </trkpt>
      <trkpt lat="59.9985893" lon="17.7366358">
        <ele>56.3745</ele>
        <time>2012-09-13T19:29:07Z</time>
      </trkpt>
      <trkpt lat="59.9987391" lon="17.7366268">
        <ele>55.4131</ele>
        <time>2012-09-13T19:29:13Z</time>
      </trkpt>
      <trkpt lat="59.9988457" lon="17.7366338">
        <ele>55.8938</ele>
        <time>2012-09-13T19:29:17Z</time>
      </trkpt>
      <trkpt lat="59.9989599" lon="17.7366737">
        <ele>54.4518</ele>
        <time>2012-09-13T19:29:22Z</time>
      </trkpt>
      <trkpt lat="59.999068" lon="17.7366791">
        <ele>53.4905</ele>
        <time>2012-09-13T19:29:27Z</time>
      </trkpt>
      <trkpt lat="59.9992234" lon="17.736691">
        <ele>55.8938</ele>
        <time>2012-09-13T19:29:33Z</time>
      </trkpt>
      <trkpt lat="59.9993767" lon="17.7367223">
        <ele>57.3358</ele>
        <time>2012-09-13T19:29:39Z</time>
      </trkpt>
      <trkpt lat="59.999515" lon="17.7367397">
        <ele>60.2197</ele>
        <time>2012-09-13T19:29:45Z</time>
      </trkpt>
      <trkpt lat="59.9996221" lon="17.7367793">
        <ele>62.6229</ele>
        <time>2012-09-13T19:29:50Z</time>
      </trkpt>
      <trkpt lat="59.9996674" lon="17.7367851">
        <ele>62.1423</ele>
        <time>2012-09-13T19:29:52Z</time>
      </trkpt>
      <trkpt lat="59.9998269" lon="17.736791">
        <ele>57.8165</ele>
        <time>2012-09-13T19:29:59Z</time>
      </trkpt>
      <trkpt lat="60.0000103" lon="17.7368145">
        <ele>58.2971</ele>
        <time>2012-09-13T19:30:06Z</time>
      </trkpt>
      <trkpt lat="60.0001683" lon="17.7367882">
        <ele>58.2971</ele>
        <time>2012-09-13T19:30:11Z</time>
      </trkpt>
      <trkpt lat="60.0003404" lon="17.7367511">
        <ele>56.3745</ele>
        <time>2012-09-13T19:30:17Z</time>
      </trkpt>
      <trkpt lat="60.0004877" lon="17.7366932">
        <ele>54.4518</ele>
        <time>2012-09-13T19:30:22Z</time>
      </trkpt>
      <trkpt lat="60.000641" lon="17.7366124">
        <ele>52.5292</ele>
        <time>2012-09-13T19:30:28Z</time>
      </trkpt>
      <trkpt lat="60.0007702" lon="17.7364902">
        <ele>48.684</ele>
        <time>2012-09-13T19:30:34Z</time>
      </trkpt>
      <trkpt lat="60.0008909" lon="17.7363799">
        <ele>45.3192</ele>
        <time>2012-09-13T19:30:40Z</time>
      </trkpt>
      <trkpt lat="60.0009891" lon="17.736332">
        <ele>45.7999</ele>
        <time>2012-09-13T19:30:44Z</time>
      </trkpt>
      <trkpt lat="60.001014" lon="17.7363285">
        <ele>45.7999</ele>
        <time>2012-09-13T19:30:45Z</time>
      </trkpt>
      <trkpt lat="60.0009991" lon="17.7364809">
        <ele>49.1646</ele>
        <time>2012-09-13T19:30:49Z</time>
      </trkpt>
      <trkpt lat="60.0009101" lon="17.7365437">
        <ele>50.126</ele>
        <time>2012-09-13T19:30:53Z</time>
      </trkpt>
      <trkpt lat="60.0007527" lon="17.7366338">
        <ele>50.6066</ele>
        <time>2012-09-13T19:31:00Z</time>
      </trkpt>
      <trkpt lat="60.000665" lon="17.7367045">
        <ele>47.7225</ele>
        <time>2012-09-13T19:31:04Z</time>
      </trkpt>
      <trkpt lat="60.0005453" lon="17.736791">
        <ele>47.2418</ele>
        <time>2012-09-13T19:31:09Z</time>
      </trkpt>
      <trkpt lat="60.0004178" lon="17.7368698">
        <ele>48.684</ele>
        <time>2012-09-13T19:31:14Z</time>
      </trkpt>
      <trkpt lat="60.000276" lon="17.7369324">
        <ele>45.7999</ele>
        <time>2012-09-13T19:31:20Z</time>
      </trkpt>
      <trkpt lat="60.0001595" lon="17.7369443">
        <ele>41.9547</ele>
        <time>2012-09-13T19:31:25Z</time>
      </trkpt>
      <trkpt lat="60.0000713" lon="17.7369415">
        <ele>38.5901</ele>
        <time>2012-09-13T19:31:29Z</time>
      </trkpt>
      <trkpt lat="59.9999348" lon="17.7369599">
        <ele>36.1868</ele>
        <time>2012-09-13T19:31:35Z</time>
      </trkpt>
      <trkpt lat="59.9998042" lon="17.73693">
        <ele>36.1868</ele>
        <time>2012-09-13T19:31:41Z</time>
      </trkpt>
      <trkpt lat="59.9997293" lon="17.7369154">
        <ele>35.2255</ele>
        <time>2012-09-13T19:31:44Z</time>
      </trkpt>
      <trkpt lat="59.9996896" lon="17.7369037">
        <ele>35.2255</ele>
        <time>2012-09-13T19:31:46Z</time>
      </trkpt>
      <trkpt lat="59.9995898" lon="17.7369139">
        <ele>33.7834</ele>
        <time>2012-09-13T19:31:50Z</time>
      </trkpt>
      <trkpt lat="59.999501" lon="17.7369184">
        <ele>31.8607</ele>
        <time>2012-09-13T19:31:54Z</time>
      </trkpt>
      <trkpt lat="59.9994379" lon="17.7368894">
        <ele>31.8607</ele>
        <time>2012-09-13T19:31:57Z</time>
      </trkpt>
      <trkpt lat="59.9993115" lon="17.7368745">
        <ele>30.4188</ele>
        <time>2012-09-13T19:32:02Z</time>
      </trkpt>
      <trkpt lat="59.9991229" lon="17.7368378">
        <ele>29.9381</ele>
        <time>2012-09-13T19:32:10Z</time>
      </trkpt>
      <trkpt lat="59.9990228" lon="17.7368286">
        <ele>29.9381</ele>
        <time>2012-09-13T19:32:14Z</time>
      </trkpt>
      <trkpt lat="59.9989956" lon="17.7368218">
        <ele>29.9381</ele>
        <time>2012-09-13T19:32:15Z</time>
      </trkpt>
      <trkpt lat="59.9988974" lon="17.7368056">
        <ele>28.4962</ele>
        <time>2012-09-13T19:32:19Z</time>
      </trkpt>
      <trkpt lat="59.9988306" lon="17.7367762">
        <ele>28.4962</ele>
        <time>2012-09-13T19:32:22Z</time>
      </trkpt>
      <trkpt lat="59.9987593" lon="17.7367591">
        <ele>27.5349</ele>
        <time>2012-09-13T19:32:25Z</time>
      </trkpt>
      <trkpt lat="59.9986199" lon="17.7367285">
        <ele>28.9769</ele>
        <time>2012-09-13T19:32:31Z</time>
      </trkpt>
      <trkpt lat="59.9984348" lon="17.7366954">
        <ele>31.3801</ele>
        <time>2012-09-13T19:32:38Z</time>
      </trkpt>
      <trkpt lat="59.9983406" lon="17.7366762">
        <ele>33.3029</ele>
        <time>2012-09-13T19:32:42Z</time>
      </trkpt>
      <trkpt lat="59.9982196" lon="17.7366668">
        <ele>34.2642</ele>
        <time>2012-09-13T19:32:47Z</time>
      </trkpt>
      <trkpt lat="59.9981502" lon="17.7366602">
        <ele>34.7449</ele>
        <time>2012-09-13T19:32:50Z</time>
      </trkpt>
      <trkpt lat="59.9979966" lon="17.7366496">
        <ele>36.1868</ele>
        <time>2012-09-13T19:32:57Z</time>
      </trkpt>
      <trkpt lat="59.997875" lon="17.7366807">
        <ele>39.0707</ele>
        <time>2012-09-13T19:33:02Z</time>
      </trkpt>
      <trkpt lat="59.9977574" lon="17.7366792">
        <ele>40.9934</ele>
        <time>2012-09-13T19:33:07Z</time>
      </trkpt>
      <trkpt lat="59.9977119" lon="17.7366844">
        <ele>41.9547</ele>
        <time>2012-09-13T19:33:09Z</time>
      </trkpt>
      <trkpt lat="59.9976075" lon="17.7366927">
        <ele>42.916</ele>
        <time>2012-09-13T19:33:13Z</time>
      </trkpt>
      <trkpt lat="59.9974579" lon="17.7367052">
        <ele>43.8773</ele>
        <time>2012-09-13T19:33:19Z</time>
      </trkpt>
      <trkpt lat="59.9973441" lon="17.7366741">
        <ele>44.358</ele>
        <time>2012-09-13T19:33:24Z</time>
      </trkpt>
      <trkpt lat="59.9972066" lon="17.7366351">
        <ele>44.358</ele>
        <time>2012-09-13T19:33:30Z</time>
      </trkpt>
      <trkpt lat="59.9970825" lon="17.7365923">
        <ele>44.358</ele>
        <time>2012-09-13T19:33:35Z</time>
      </trkpt>
      <trkpt lat="59.9969731" lon="17.7365695">
        <ele>44.358</ele>
        <time>2012-09-13T19:33:39Z</time>
      </trkpt>
      <trkpt lat="59.9968391" lon="17.736541">
        <ele>45.3192</ele>
        <time>2012-09-13T19:33:44Z</time>
      </trkpt>
      <trkpt lat="59.9966967" lon="17.7365058">
        <ele>48.2034</ele>
        <time>2012-09-13T19:33:49Z</time>
      </trkpt>
      <trkpt lat="59.9965774" lon="17.7364213">
        <ele>49.6453</ele>
        <time>2012-09-13T19:33:54Z</time>
      </trkpt>
      <trkpt lat="59.9964433" lon="17.7363274">
        <ele>50.6066</ele>
        <time>2012-09-13T19:33:59Z</time>
      </trkpt>
      <trkpt lat="59.9963234" lon="17.7362716">
        <ele>51.0872</ele>
        <time>2012-09-13T19:34:04Z</time>
      </trkpt>
      <trkpt lat="59.9961962" lon="17.7362462">
        <ele>50.126</ele>
        <time>2012-09-13T19:34:09Z</time>
      </trkpt>
      <trkpt lat="59.9960496" lon="17.7362295">
        <ele>46.7612</ele>
        <time>2012-09-13T19:34:14Z</time>
      </trkpt>
      <trkpt lat="59.9959215" lon="17.7362186">
        <ele>43.8773</ele>
        <time>2012-09-13T19:34:19Z</time>
      </trkpt>
      <trkpt lat="59.9958284" lon="17.7361702">
        <ele>43.8773</ele>
        <time>2012-09-13T19:34:23Z</time>
      </trkpt>
      <trkpt lat="59.9957247" lon="17.7361638">
        <ele>43.3966</ele>
        <time>2012-09-13T19:34:27Z</time>
      </trkpt>
      <trkpt lat="59.9956634" lon="17.7361774">
        <ele>42.916</ele>
        <time>2012-09-13T19:34:29Z</time>
      </trkpt>
      <trkpt lat="59.9956059" lon="17.7361732">
        <ele>42.916</ele>
        <time>2012-09-13T19:34:31Z</time>
      </trkpt>
      <trkpt lat="59.995447" lon="17.736179">
        <ele>44.358</ele>
        <time>2012-09-13T19:34:37Z</time>
      </trkpt>
      <trkpt lat="59.9954061" lon="17.7362037">
        <ele>45.7999</ele>
        <time>2012-09-13T19:34:38Z</time>
      </trkpt>
      <trkpt lat="59.9952824" lon="17.7361811">
        <ele>44.8386</ele>
        <time>2012-09-13T19:34:43Z</time>
      </trkpt>
      <trkpt lat="59.9951574" lon="17.7361399">
        <ele>44.358</ele>
        <time>2012-09-13T19:34:48Z</time>
      </trkpt>
      <trkpt lat="59.9950621" lon="17.7360924">
        <ele>43.3966</ele>
        <time>2012-09-13T19:34:52Z</time>
      </trkpt>
      <trkpt lat="59.994944" lon="17.736068">
        <ele>43.8773</ele>
        <time>2012-09-13T19:34:57Z</time>
      </trkpt>
      <trkpt lat="59.9948995" lon="17.7360521">
        <ele>43.3966</ele>
        <time>2012-09-13T19:34:59Z</time>
      </trkpt>
      <trkpt lat="59.9947425" lon="17.7359451">
        <ele>42.916</ele>
        <time>2012-09-13T19:35:06Z</time>
      </trkpt>
      <trkpt lat="59.9946226" lon="17.7358824">
        <ele>43.8773</ele>
        <time>2012-09-13T19:35:11Z</time>
      </trkpt>
      <trkpt lat="59.994493" lon="17.7358063">
        <ele>46.2806</ele>
        <time>2012-09-13T19:35:16Z</time>
      </trkpt>
      <trkpt lat="59.9943489" lon="17.7357323">
        <ele>48.684</ele>
        <time>2012-09-13T19:35:22Z</time>
      </trkpt>
      <trkpt lat="59.994208" lon="17.7356923">
        <ele>50.6066</ele>
        <time>2012-09-13T19:35:28Z</time>
      </trkpt>
      <trkpt lat="59.9941053" lon="17.7356835">
        <ele>50.6066</ele>
        <time>2012-09-13T19:35:32Z</time>
      </trkpt>
      <trkpt lat="59.9940287" lon="17.7356617">
        <ele>49.1646</ele>
        <time>2012-09-13T19:35:35Z</time>
      </trkpt>
      <trkpt lat="59.9939081" lon="17.7356439">
        <ele>45.3192</ele>
        <time>2012-09-13T19:35:40Z</time>
      </trkpt>
      <trkpt lat="59.9938152" lon="17.7356205">
        <ele>44.8386</ele>
        <time>2012-09-13T19:35:44Z</time>
      </trkpt>
      <trkpt lat="59.9936567" lon="17.7356024">
        <ele>47.2418</ele>
        <time>2012-09-13T19:35:50Z</time>
      </trkpt>
      <trkpt lat="59.9935305" lon="17.7356242">
        <ele>46.7612</ele>
        <time>2012-09-13T19:35:55Z</time>
      </trkpt>
      <trkpt lat="59.9934018" lon="17.7357143">
        <ele>45.3192</ele>
        <time>2012-09-13T19:36:01Z</time>
      </trkpt>
      <trkpt lat="59.9933762" lon="17.7357488">
        <ele>43.8773</ele>
        <time>2012-09-13T19:36:03Z</time>
      </trkpt>
      <trkpt lat="59.9932828" lon="17.7358734">
        <ele>40.5128</ele>
        <time>2012-09-13T19:36:08Z</time>
      </trkpt>
      <trkpt lat="59.9932666" lon="17.7359121">
        <ele>39.5513</ele>
        <time>2012-09-13T19:36:09Z</time>
      </trkpt>
      <trkpt lat="59.993232" lon="17.7360142">
        <ele>37.6287</ele>
        <time>2012-09-13T19:36:12Z</time>
      </trkpt>
      <trkpt lat="59.9931252" lon="17.7362333">
        <ele>42.4354</ele>
        <time>2012-09-13T19:36:18Z</time>
      </trkpt>
      <trkpt lat="59.9930073" lon="17.736496">
        <ele>47.2418</ele>
        <time>2012-09-13T19:36:24Z</time>
      </trkpt>
      <trkpt lat="59.9929294" lon="17.7366767">
        <ele>42.916</ele>
        <time>2012-09-13T19:36:29Z</time>
      </trkpt>
      <trkpt lat="59.9928736" lon="17.7367837">
        <ele>42.916</ele>
        <time>2012-09-13T19:36:33Z</time>
      </trkpt>
      <trkpt lat="59.992827" lon="17.7368934">
        <ele>41.474</ele>
        <time>2012-09-13T19:36:36Z</time>
      </trkpt>
      <trkpt lat="59.992715" lon="17.737099">
        <ele>40.5128</ele>
        <time>2012-09-13T19:36:42Z</time>
      </trkpt>
      <trkpt lat="59.9926389" lon="17.7372004">
        <ele>44.358</ele>
        <time>2012-09-13T19:36:45Z</time>
      </trkpt>
      <trkpt lat="59.9924656" lon="17.737366">
        <ele>45.3192</ele>
        <time>2012-09-13T19:36:52Z</time>
      </trkpt>
      <trkpt lat="59.9923703" lon="17.7374686">
        <ele>46.7612</ele>
        <time>2012-09-13T19:36:56Z</time>
      </trkpt>
      <trkpt lat="59.9922764" lon="17.7375501">
        <ele>44.8386</ele>
        <time>2012-09-13T19:37:00Z</time>
      </trkpt>
      <trkpt lat="59.9922086" lon="17.737573">
        <ele>44.358</ele>
        <time>2012-09-13T19:37:03Z</time>
      </trkpt>
      <trkpt lat="59.9921061" lon="17.7376035">
        <ele>42.916</ele>
        <time>2012-09-13T19:37:07Z</time>
      </trkpt>
      <trkpt lat="59.9920422" lon="17.737612">
        <ele>41.474</ele>
        <time>2012-09-13T19:37:10Z</time>
      </trkpt>
      <trkpt lat="59.9919245" lon="17.7376406">
        <ele>41.9547</ele>
        <time>2012-09-13T19:37:15Z</time>
      </trkpt>
      <trkpt lat="59.991806" lon="17.7376516">
        <ele>41.9547</ele>
        <time>2012-09-13T19:37:20Z</time>
      </trkpt>
      <trkpt lat="59.9917253" lon="17.7376562">
        <ele>40.9934</ele>
        <time>2012-09-13T19:37:23Z</time>
      </trkpt>
      <trkpt lat="59.9916548" lon="17.7376547">
        <ele>39.0707</ele>
        <time>2012-09-13T19:37:26Z</time>
      </trkpt>
      <trkpt lat="59.9916261" lon="17.7376607">
        <ele>39.5513</ele>
        <time>2012-09-13T19:37:27Z</time>
      </trkpt>
      <trkpt lat="59.9915736" lon="17.7376357">
        <ele>39.5513</ele>
        <time>2012-09-13T19:37:29Z</time>
      </trkpt>
      <trkpt lat="59.9914361" lon="17.7376562">
        <ele>39.5513</ele>
        <time>2012-09-13T19:37:34Z</time>
      </trkpt>
      <trkpt lat="59.99126" lon="17.7376817">
        <ele>42.4354</ele>
        <time>2012-09-13T19:37:40Z</time>
      </trkpt>
      <trkpt lat="59.9911528" lon="17.7377127">
        <ele>41.474</ele>
        <time>2012-09-13T19:37:45Z</time>
      </trkpt>
      <trkpt lat="59.991044" lon="17.7377794">
        <ele>41.474</ele>
        <time>2012-09-13T19:37:49Z</time>
      </trkpt>
      <trkpt lat="59.9910145" lon="17.7378084">
        <ele>42.4354</ele>
        <time>2012-09-13T19:37:50Z</time>
      </trkpt>
      <trkpt lat="59.9908861" lon="17.7378641">
        <ele>44.358</ele>
        <time>2012-09-13T19:37:55Z</time>
      </trkpt>
      <trkpt lat="59.9907719" lon="17.7379406">
        <ele>44.358</ele>
        <time>2012-09-13T19:37:59Z</time>
      </trkpt>
      <trkpt lat="59.9906498" lon="17.737992">
        <ele>44.8386</ele>
        <time>2012-09-13T19:38:04Z</time>
      </trkpt>
      <trkpt lat="59.9905435" lon="17.7380515">
        <ele>41.9547</ele>
        <time>2012-09-13T19:38:09Z</time>
      </trkpt>
      <trkpt lat="59.9904296" lon="17.7380945">
        <ele>39.5513</ele>
        <time>2012-09-13T19:38:14Z</time>
      </trkpt>
      <trkpt lat="59.9903322" lon="17.7381116">
        <ele>38.5901</ele>
        <time>2012-09-13T19:38:18Z</time>
      </trkpt>
      <trkpt lat="59.9903038" lon="17.7381205">
        <ele>38.1094</ele>
        <time>2012-09-13T19:38:19Z</time>
      </trkpt>
      <trkpt lat="59.9902567" lon="17.738138">
        <ele>37.6287</ele>
        <time>2012-09-13T19:38:21Z</time>
      </trkpt>
      <trkpt lat="59.9901655" lon="17.738165">
        <ele>37.6287</ele>
        <time>2012-09-13T19:38:25Z</time>
      </trkpt>
      <trkpt lat="59.9900282" lon="17.738249">
        <ele>39.5513</ele>
        <time>2012-09-13T19:38:30Z</time>
      </trkpt>
      <trkpt lat="59.9899434" lon="17.7383151">
        <ele>40.0321</ele>
        <time>2012-09-13T19:38:33Z</time>
      </trkpt>
      <trkpt lat="59.9898061" lon="17.7384088">
        <ele>41.9547</ele>
        <time>2012-09-13T19:38:37Z</time>
      </trkpt>
      <trkpt lat="59.9896817" lon="17.7384715">
        <ele>41.9547</ele>
        <time>2012-09-13T19:38:41Z</time>
      </trkpt>
      <trkpt lat="59.9895739" lon="17.7385233">
        <ele>41.474</ele>
        <time>2012-09-13T19:38:45Z</time>
      </trkpt>
      <trkpt lat="59.9894563" lon="17.7385513">
        <ele>41.9547</ele>
        <time>2012-09-13T19:38:50Z</time>
      </trkpt>
      <trkpt lat="59.9893776" lon="17.7385386">
        <ele>42.4354</ele>
        <time>2012-09-13T19:38:54Z</time>
      </trkpt>
      <trkpt lat="59.9892191" lon="17.7386188">
        <ele>42.4354</ele>
        <time>2012-09-13T19:39:01Z</time>
      </trkpt>
      <trkpt lat="59.9891305" lon="17.7386628">
        <ele>41.9547</ele>
        <time>2012-09-13T19:39:05Z</time>
      </trkpt>
      <trkpt lat="59.9890077" lon="17.7386944">
        <ele>42.916</ele>
        <time>2012-09-13T19:39:10Z</time>
      </trkpt>
      <trkpt lat="59.9889547" lon="17.7387342">
        <ele>42.916</ele>
        <time>2012-09-13T19:39:12Z</time>
      </trkpt>
      <trkpt lat="59.9888549" lon="17.7388637">
        <ele>43.3966</ele>
        <time>2012-09-13T19:39:16Z</time>
      </trkpt>
      <trkpt lat="59.9887202" lon="17.7389635">
        <ele>43.3966</ele>
        <time>2012-09-13T19:39:22Z</time>
      </trkpt>
      <trkpt lat="59.9886944" lon="17.7389828">
        <ele>43.8773</ele>
        <time>2012-09-13T19:39:23Z</time>
      </trkpt>
      <trkpt lat="59.9886027" lon="17.7390243">
        <ele>43.3966</ele>
        <time>2012-09-13T19:39:28Z</time>
      </trkpt>
      <trkpt lat="59.9885788" lon="17.7390423">
        <ele>43.3966</ele>
        <time>2012-09-13T19:39:29Z</time>
      </trkpt>
      <trkpt lat="59.9884013" lon="17.7391258">
        <ele>42.4354</ele>
        <time>2012-09-13T19:39:36Z</time>
      </trkpt>
      <trkpt lat="59.9882592" lon="17.7391611">
        <ele>42.916</ele>
        <time>2012-09-13T19:39:42Z</time>
      </trkpt>
      <trkpt lat="59.9881639" lon="17.7391854">
        <ele>42.916</ele>
        <time>2012-09-13T19:39:46Z</time>
      </trkpt>
      <trkpt lat="59.9880763" lon="17.7392155">
        <ele>42.4354</ele>
        <time>2012-09-13T19:39:49Z</time>
      </trkpt>
      <trkpt lat="59.9879389" lon="17.7392637">
        <ele>43.3966</ele>
        <time>2012-09-13T19:39:54Z</time>
      </trkpt>
      <trkpt lat="59.9877903" lon="17.7393175">
        <ele>43.8773</ele>
        <time>2012-09-13T19:39:59Z</time>
      </trkpt>
      <trkpt lat="59.9876811" lon="17.7393427">
        <ele>43.8773</ele>
        <time>2012-09-13T19:40:03Z</time>
      </trkpt>
      <trkpt lat="59.9875931" lon="17.7393735">
        <ele>43.8773</ele>
        <time>2012-09-13T19:40:06Z</time>
      </trkpt>
      <trkpt lat="59.9875348" lon="17.7393962">
        <ele>42.4354</ele>
        <time>2012-09-13T19:40:08Z</time>
      </trkpt>
      <trkpt lat="59.9874344" lon="17.7393875">
        <ele>43.3966</ele>
        <time>2012-09-13T19:40:12Z</time>
      </trkpt>
      <trkpt lat="59.9872977" lon="17.7394205">
        <ele>42.916</ele>
        <time>2012-09-13T19:40:17Z</time>
      </trkpt>
      <trkpt lat="59.987101" lon="17.7394217">
        <ele>47.7225</ele>
        <time>2012-09-13T19:40:24Z</time>
      </trkpt>
      <trkpt lat="59.9869979" lon="17.7393919">
        <ele>50.126</ele>
        <time>2012-09-13T19:40:28Z</time>
      </trkpt>
      <trkpt lat="59.9868834" lon="17.7393223">
        <ele>51.5679</ele>
        <time>2012-09-13T19:40:33Z</time>
      </trkpt>
      <trkpt lat="59.9867612" lon="17.7392174">
        <ele>52.0486</ele>
        <time>2012-09-13T19:40:38Z</time>
      </trkpt>
      <trkpt lat="59.9866238" lon="17.7390906">
        <ele>54.9324</ele>
        <time>2012-09-13T19:40:43Z</time>
      </trkpt>
      <trkpt lat="59.9866105" lon="17.7390633">
        <ele>54.4518</ele>
        <time>2012-09-13T19:40:44Z</time>
      </trkpt>
      <trkpt lat="59.9865102" lon="17.7389475">
        <ele>53.4905</ele>
        <time>2012-09-13T19:40:49Z</time>
      </trkpt>
      <trkpt lat="59.9863676" lon="17.7388353">
        <ele>53.9712</ele>
        <time>2012-09-13T19:40:55Z</time>
      </trkpt>
      <trkpt lat="59.986259" lon="17.7387472">
        <ele>54.4518</ele>
        <time>2012-09-13T19:41:00Z</time>
      </trkpt>
      <trkpt lat="59.9861574" lon="17.7386467">
        <ele>53.9712</ele>
        <time>2012-09-13T19:41:05Z</time>
      </trkpt>
      <trkpt lat="59.9860148" lon="17.738627">
        <ele>62.1423</ele>
        <time>2012-09-13T19:41:09Z</time>
      </trkpt>
      <trkpt lat="59.9858773" lon="17.7385731">
        <ele>68.8716</ele>
        <time>2012-09-13T19:41:14Z</time>
      </trkpt>
      <trkpt lat="59.9858525" lon="17.7385575">
        <ele>68.8716</ele>
        <time>2012-09-13T19:41:15Z</time>
      </trkpt>
      <trkpt lat="59.9856749" lon="17.7384512">
        <ele>65.0264</ele>
        <time>2012-09-13T19:41:22Z</time>
      </trkpt>
      <trkpt lat="59.9855092" lon="17.7383893">
        <ele>63.5844</ele>
        <time>2012-09-13T19:41:28Z</time>
      </trkpt>
      <trkpt lat="59.9853499" lon="17.7383787">
        <ele>65.0264</ele>
        <time>2012-09-13T19:41:33Z</time>
      </trkpt>
      <trkpt lat="59.9852469" lon="17.7383374">
        <ele>62.1423</ele>
        <time>2012-09-13T19:41:37Z</time>
      </trkpt>
      <trkpt lat="59.9850947" lon="17.7382986">
        <ele>59.7391</ele>
        <time>2012-09-13T19:41:43Z</time>
      </trkpt>
      <trkpt lat="59.9849459" lon="17.7382567">
        <ele>57.8165</ele>
        <time>2012-09-13T19:41:49Z</time>
      </trkpt>
      <trkpt lat="59.9848585" lon="17.7382498">
        <ele>58.7777</ele>
        <time>2012-09-13T19:41:52Z</time>
      </trkpt>
      <trkpt lat="59.9847382" lon="17.738213">
        <ele>56.8551</ele>
        <time>2012-09-13T19:41:57Z</time>
      </trkpt>
      <trkpt lat="59.9845848" lon="17.7381665">
        <ele>55.4131</ele>
        <time>2012-09-13T19:42:02Z</time>
      </trkpt>
      <trkpt lat="59.9844311" lon="17.738086">
        <ele>53.0098</ele>
        <time>2012-09-13T19:42:07Z</time>
      </trkpt>
      <trkpt lat="59.984303" lon="17.7380273">
        <ele>52.5292</ele>
        <time>2012-09-13T19:42:12Z</time>
      </trkpt>
      <trkpt lat="59.9841633" lon="17.7380064">
        <ele>50.6066</ele>
        <time>2012-09-13T19:42:17Z</time>
      </trkpt>
      <trkpt lat="59.9840483" lon="17.738013">
        <ele>48.684</ele>
        <time>2012-09-13T19:42:21Z</time>
      </trkpt>
      <trkpt lat="59.9838846" lon="17.738033">
        <ele>47.2418</ele>
        <time>2012-09-13T19:42:27Z</time>
      </trkpt>
      <trkpt lat="59.9837889" lon="17.7380409">
        <ele>45.7999</ele>
        <time>2012-09-13T19:42:31Z</time>
      </trkpt>
      <trkpt lat="59.9837363" lon="17.7380495">
        <ele>44.358</ele>
        <time>2012-09-13T19:42:33Z</time>
      </trkpt>
      <trkpt lat="59.983571" lon="17.7380774">
        <ele>43.3966</ele>
        <time>2012-09-13T19:42:39Z</time>
      </trkpt>
      <trkpt lat="59.9834537" lon="17.7380974">
        <ele>44.8386</ele>
        <time>2012-09-13T19:42:43Z</time>
      </trkpt>
      <trkpt lat="59.9832976" lon="17.738165">
        <ele>46.2806</ele>
        <time>2012-09-13T19:42:48Z</time>
      </trkpt>
      <trkpt lat="59.9831475" lon="17.7382649">
        <ele>47.7225</ele>
        <time>2012-09-13T19:42:52Z</time>
      </trkpt>
      <trkpt lat="59.9831211" lon="17.73827">
        <ele>47.7225</ele>
        <time>2012-09-13T19:42:53Z</time>
      </trkpt>
      <trkpt lat="59.982976" lon="17.7382629">
        <ele>49.1646</ele>
        <time>2012-09-13T19:42:59Z</time>
      </trkpt>
      <trkpt lat="59.9828652" lon="17.7382507">
        <ele>49.1646</ele>
        <time>2012-09-13T19:43:04Z</time>
      </trkpt>
      <trkpt lat="59.9827383" lon="17.7382039">
        <ele>47.7225</ele>
        <time>2012-09-13T19:43:10Z</time>
      </trkpt>
      <trkpt lat="59.9826" lon="17.7381751">
        <ele>47.2418</ele>
        <time>2012-09-13T19:43:16Z</time>
      </trkpt>
      <trkpt lat="59.9824819" lon="17.7381566">
        <ele>46.2806</ele>
        <time>2012-09-13T19:43:21Z</time>
      </trkpt>
      <trkpt lat="59.9823808" lon="17.7381556">
        <ele>44.358</ele>
        <time>2012-09-13T19:43:25Z</time>
      </trkpt>
      <trkpt lat="59.9822745" lon="17.7381632">
        <ele>43.3966</ele>
        <time>2012-09-13T19:43:29Z</time>
      </trkpt>
      <trkpt lat="59.9822228" lon="17.7381733">
        <ele>43.8773</ele>
        <time>2012-09-13T19:43:31Z</time>
      </trkpt>
      <trkpt lat="59.982073" lon="17.7382582">
        <ele>45.3192</ele>
        <time>2012-09-13T19:43:36Z</time>
      </trkpt>
      <trkpt lat="59.9819621" lon="17.73831">
        <ele>44.8386</ele>
        <time>2012-09-13T19:43:40Z</time>
      </trkpt>
      <trkpt lat="59.9818587" lon="17.73834">
        <ele>43.8773</ele>
        <time>2012-09-13T19:43:44Z</time>
      </trkpt>
      <trkpt lat="59.9817582" lon="17.7383923">
        <ele>43.8773</ele>
        <time>2012-09-13T19:43:48Z</time>
      </trkpt>
      <trkpt lat="59.981671" lon="17.7384041">
        <ele>41.9547</ele>
        <time>2012-09-13T19:43:52Z</time>
      </trkpt>
      <trkpt lat="59.9815663" lon="17.7384171">
        <ele>40.9934</ele>
        <time>2012-09-13T19:43:56Z</time>
      </trkpt>
      <trkpt lat="59.9814567" lon="17.7384432">
        <ele>39.0707</ele>
        <time>2012-09-13T19:44:00Z</time>
      </trkpt>
      <trkpt lat="59.9814257" lon="17.7384494">
        <ele>38.5901</ele>
        <time>2012-09-13T19:44:01Z</time>
      </trkpt>
      <trkpt lat="59.9812622" lon="17.7384927">
        <ele>35.2255</ele>
        <time>2012-09-13T19:44:07Z</time>
      </trkpt>
      <trkpt lat="59.9811598" lon="17.7385181">
        <ele>33.7834</ele>
        <time>2012-09-13T19:44:11Z</time>
      </trkpt>
      <trkpt lat="59.9810147" lon="17.7385349">
        <ele>36.1868</ele>
        <time>2012-09-13T19:44:16Z</time>
      </trkpt>
      <trkpt lat="59.9808574" lon="17.7385973">
        <ele>35.7061</ele>
        <time>2012-09-13T19:44:21Z</time>
      </trkpt>
      <trkpt lat="59.9807666" lon="17.7386358">
        <ele>37.1481</ele>
        <time>2012-09-13T19:44:24Z</time>
      </trkpt>
      <trkpt lat="59.9806195" lon="17.738697">
        <ele>39.5513</ele>
        <time>2012-09-13T19:44:28Z</time>
      </trkpt>
      <trkpt lat="59.9804621" lon="17.7387612">
        <ele>39.5513</ele>
        <time>2012-09-13T19:44:33Z</time>
      </trkpt>
      <trkpt lat="59.9803243" lon="17.7387871">
        <ele>40.5128</ele>
        <time>2012-09-13T19:44:37Z</time>
      </trkpt>
      <trkpt lat="59.9801328" lon="17.7388012">
        <ele>41.9547</ele>
        <time>2012-09-13T19:44:43Z</time>
      </trkpt>
      <trkpt lat="59.9801017" lon="17.7388001">
        <ele>41.9547</ele>
        <time>2012-09-13T19:44:44Z</time>
      </trkpt>
      <trkpt lat="59.979953" lon="17.7387839">
        <ele>43.8773</ele>
        <time>2012-09-13T19:44:49Z</time>
      </trkpt>
      <trkpt lat="59.9798316" lon="17.738785">
        <ele>43.8773</ele>
        <time>2012-09-13T19:44:53Z</time>
      </trkpt>
      <trkpt lat="59.9796363" lon="17.7388643">
        <ele>46.2806</ele>
        <time>2012-09-13T19:44:59Z</time>
      </trkpt>
      <trkpt lat="59.9794723" lon="17.7389627">
        <ele>47.2418</ele>
        <time>2012-09-13T19:45:04Z</time>
      </trkpt>
      <trkpt lat="59.9793304" lon="17.739077">
        <ele>46.2806</ele>
        <time>2012-09-13T19:45:09Z</time>
      </trkpt>
      <trkpt lat="59.9791841" lon="17.7391724">
        <ele>45.7999</ele>
        <time>2012-09-13T19:45:14Z</time>
      </trkpt>
      <trkpt lat="59.9790507" lon="17.7392471">
        <ele>44.8386</ele>
        <time>2012-09-13T19:45:18Z</time>
      </trkpt>
      <trkpt lat="59.9789263" lon="17.7392953">
        <ele>45.7999</ele>
        <time>2012-09-13T19:45:22Z</time>
      </trkpt>
      <trkpt lat="59.9788768" lon="17.7393287">
        <ele>45.3192</ele>
        <time>2012-09-13T19:45:24Z</time>
      </trkpt>
      <trkpt lat="59.9788578" lon="17.7393575">
        <ele>45.7999</ele>
        <time>2012-09-13T19:45:25Z</time>
      </trkpt>
    </trkseg>
  </trk>
</gpx>